Terminal Aerodrome Forecast
Issued by NWS Huntsville, AL

Home | Current Version | Previous Version | Text Only | Print | Product List | Glossary On
Versions: 1 2 3 4 5 6 7 8 9 10 11 12 13 14 15 16 17 18 19 20 21 22 23 24 25 26 27 28 29 30 31 32 33 34
404
FTUS44 KHUN 290520
TAFHSV
TAF
KHSV 290520Z 2906/3006 VRB04KT P6SM FEW025
     FM291000 VRB03KT 5SM BR SCT025
     FM291400 12006KT P6SM BKN050
     FM291800 16007KT P6SM OVC250=

USA.gov is the U.S. government's official web portal to all federal, state and local government web resources and services.